Terminal Aerodrome Forecast
Issued by NWS Grand Forks, ND

Home | Current Version | Previous Version | Graphics & Text | Print | Product List | Glossary On
Versions: 1 2 3 4 5 6 7 8 9 10 11 12 13
000
FTUS43 KFGF 072300
TAFGFK
TAF
KGFK 072320Z 0800/0824 30012KT P6SM VCTS BKN050CB
     FM080200 31012KT P6SM VCSH BKN060
     FM080400 31008KT P6SM SCT050 SCT250
     FM081500 34015KT P6SM SCT050=

USA.gov is the U.S. government's official web portal to all federal, state and local government web resources and services.